Time;durP1;ratioP1;P1;durP2;ratioP2;P2;SDS_P1;SDS_P2;PMS_P1;PMS_P2;Temp;Humidity;BMP_temperature;BMP_pressure;BME280_temperature;BME280_humidity;BME280_pressure;Samples;Min_cycle;Max_cycle;Signal;HPM_P1;HPM_P2
2021/12/30 00:02:01;;;;;;;7.53;5.47;;;;;;;-141.29;100.00;58932.97;5073490;28;20430;-76
2021/12/30 00:04:34;;;;;;;8.17;5.03;;;;;;;-141.29;100.00;58932.97;5073750;28;20442;-75
2021/12/30 00:07:08;;;;;;;8.93;5.00;;;;;;;-141.29;100.00;58932.97;5075496;28;20431;-75
2021/12/30 00:09:40;;;;;;;8.80;5.50;;;;;;;-141.29;100.00;58932.97;5077755;28;20534;-76
2021/12/30 00:12:10;;;;;;;6.40;4.50;;;;;;;-141.29;100.00;58932.97;5073416;28;20430;-76
2021/12/30 00:14:38;;;;;;;8.47;5.50;;;;;;;-141.29;100.00;58932.97;5073471;28;20482;-76
2021/12/30 00:17:10;;;;;;;7.73;5.37;;;;;;;-141.29;100.00;58932.97;5072949;28;20480;-76
2021/12/30 00:19:38;;;;;;;6.53;4.93;;;;;;;-141.29;100.00;58932.97;5072920;28;20496;-75
2021/12/30 00:22:10;;;;;;;6.33;4.17;;;;;;;-141.29;100.00;58932.97;5073038;28;20438;-75
2021/12/30 00:24:46;;;;;;;6.80;4.63;;;;;;;-141.29;100.00;58932.97;5073000;28;20450;-75
2021/12/30 00:27:25;;;;;;;6.10;4.43;;;;;;;-141.29;100.00;58932.97;5072828;28;20850;-76
2021/12/30 00:29:53;;;;;;;6.03;4.33;;;;;;;-141.29;100.00;58932.97;5072582;28;20512;-75
2021/12/30 00:32:20;;;;;;;5.73;4.10;;;;;;;-141.29;100.00;58932.97;5072727;28;20500;-75
2021/12/30 00:34:47;;;;;;;5.93;4.17;;;;;;;-141.29;100.00;58932.97;5072620;28;20555;-75
2021/12/30 00:37:20;;;;;;;5.13;4.07;;;;;;;-141.29;100.00;58932.97;5072433;28;20435;-75
2021/12/30 00:39:48;;;;;;;7.13;3.93;;;;;;;-141.29;100.00;58932.97;5072294;28;20482;-74
2021/12/30 00:42:15;;;;;;;6.50;4.27;;;;;;;-141.29;100.00;58932.97;5073963;28;20545;-74
2021/12/30 00:44:42;;;;;;;5.10;4.00;;;;;;;-141.29;100.00;58932.97;5098293;28;20510;-75
2021/12/30 00:47:10;;;;;;;8.03;4.03;;;;;;;-141.29;100.00;58932.97;5098897;28;20449;-76
2021/12/30 00:49:37;;;;;;;5.47;3.77;;;;;;;-141.29;100.00;58932.97;5080198;28;20504;-76
2021/12/30 00:52:05;;;;;;;5.53;3.77;;;;;;;-141.29;100.00;58932.97;5073083;28;20495;-76
2021/12/30 00:54:38;;;;;;;6.43;4.57;;;;;;;-141.29;100.00;58932.97;5072114;28;20474;-77
2021/12/30 00:57:06;;;;;;;4.50;3.50;;;;;;;-141.29;100.00;58932.97;5072437;28;20446;-76
2021/12/30 00:59:34;;;;;;;5.93;4.03;;;;;;;-141.29;100.00;58932.97;5072346;28;20434;-75
2021/12/30 01:02:04;;;;;;;8.87;4.20;;;;;;;-141.29;100.00;58932.97;5072204;28;20957;-74
2021/12/30 01:04:33;;;;;;;5.87;4.00;;;;;;;-141.29;100.00;58932.97;5072067;28;20450;-75
2021/12/30 01:07:00;;;;;;;6.17;4.03;;;;;;;-141.29;100.00;58932.97;5072145;28;20431;-74
2021/12/30 01:09:27;;;;;;;6.27;3.90;;;;;;;-141.29;100.00;58932.97;5072224;28;20806;-74
2021/12/30 01:11:58;;;;;;;5.63;3.77;;;;;;;-141.29;100.00;58932.97;5072442;28;20941;-74
2021/12/30 01:14:28;;;;;;;6.23;4.37;;;;;;;-141.29;100.00;58932.97;5072964;28;20490;-75
2021/12/30 01:16:59;;;;;;;4.10;3.00;;;;;;;-141.29;100.00;58932.97;5072365;28;20470;-74
2021/12/30 01:22:10;;;;;;;4.17;2.97;;;;;;;-141.29;100.00;58932.97;5072184;28;20976;-76
2021/12/30 01:24:37;;;;;;;4.50;3.30;;;;;;;-141.29;100.00;58932.97;5071771;28;20446;-75
2021/12/30 01:27:11;;;;;;;7.60;3.80;;;;;;;-141.29;100.00;58932.97;5071984;28;20492;-76
2021/12/30 01:29:39;;;;;;;4.47;3.30;;;;;;;-141.29;100.00;58932.97;5071950;28;20454;-77
2021/12/30 01:32:07;;;;;;;4.13;3.17;;;;;;;-141.29;100.00;58932.97;5071797;28;20430;-76
2021/12/30 01:34:35;;;;;;;3.73;2.87;;;;;;;-141.29;100.00;58932.97;5072076;28;20486;-76
2021/12/30 01:37:04;;;;;;;5.63;3.30;;;;;;;-141.29;100.00;58932.97;5071969;28;20945;-74
2021/12/30 01:39:33;;;;;;;4.23;3.43;;;;;;;-141.29;100.00;58932.97;5071985;28;20488;-77
2021/12/30 01:42:02;;;;;;;4.40;3.13;;;;;;;-141.29;100.00;58932.97;5071589;28;20454;-75
2021/12/30 01:44:34;;;;;;;5.73;3.57;;;;;;;-141.29;100.00;58932.97;5072713;28;20435;-76
2021/12/30 01:47:04;;;;;;;5.97;3.70;;;;;;;-141.29;100.00;58932.97;5076219;28;20904;-76
2021/12/30 01:49:33;;;;;;;3.87;3.23;;;;;;;-141.29;100.00;58932.97;5075800;28;20445;-75
2021/12/30 01:52:07;;;;;;;5.13;2.90;;;;;;;-141.29;100.00;58932.97;5075861;28;20439;-75
2021/12/30 01:54:35;;;;;;;4.60;3.33;;;;;;;-141.29;100.00;58932.97;5075788;28;20504;-75
2021/12/30 01:57:05;;;;;;;5.57;3.30;;;;;;;-141.29;100.00;58932.97;5075883;28;20442;-76
2021/12/30 01:59:34;;;;;;;3.83;3.10;;;;;;;-141.29;100.00;58932.97;5075462;28;20442;-74
2021/12/30 02:02:02;;;;;;;4.10;3.40;;;;;;;-141.29;100.00;58932.97;5075557;28;20941;-75
2021/12/30 02:04:31;;;;;;;4.53;3.03;;;;;;;-141.29;100.00;58932.97;5075495;28;20438;-74
2021/12/30 02:07:01;;;;;;;4.20;3.20;;;;;;;-141.29;100.00;58932.97;5075275;28;20879;-76
2021/12/30 02:09:30;;;;;;;6.00;3.23;;;;;;;-141.29;100.00;58932.97;5074083;28;20449;-74
2021/12/30 02:12:04;;;;;;;4.10;3.40;;;;;;;-141.29;100.00;58932.97;5075461;28;20431;-73
2021/12/30 02:14:43;;;;;;;4.33;3.10;;;;;;;-141.29;100.00;58932.97;5075908;28;20485;-73
2021/12/30 02:17:12;;;;;;;4.53;3.47;;;;;;;-141.29;100.00;58932.97;5078499;28;20460;-75
2021/12/30 02:19:49;;;;;;;4.67;3.20;;;;;;;-141.29;100.00;58932.97;5077723;28;20446;-74
2021/12/30 02:22:18;;;;;;;4.60;3.40;;;;;;;-141.29;100.00;58932.97;5076130;28;20435;-76
2021/12/30 02:25:05;;;;;;;4.17;3.33;;;;;;;-141.29;100.00;58932.97;5075526;28;20440;-74
2021/12/30 02:27:34;;;;;;;5.30;3.20;;;;;;;-141.29;100.00;58932.97;5074898;28;21001;-75
2021/12/30 02:30:07;;;;;;;4.63;3.50;;;;;;;-141.29;100.00;58932.97;5075311;28;20431;-74
2021/12/30 02:32:41;;;;;;;4.20;3.37;;;;;;;-141.29;100.00;58932.97;5075749;28;20450;-77
2021/12/30 02:35:12;;;;;;;5.87;2.93;;;;;;;-141.29;100.00;58932.97;5074969;28;21091;-75
2021/12/30 02:37:40;;;;;;;4.13;3.13;;;;;;;-141.29;100.00;58932.97;5075028;28;20434;-75
2021/12/30 02:40:09;;;;;;;3.97;2.97;;;;;;;-141.29;100.00;58932.97;5074612;28;20523;-74
2021/12/30 02:42:43;;;;;;;3.67;2.97;;;;;;;-141.29;100.00;58932.97;5074656;28;20498;-74
2021/12/30 02:45:14;;;;;;;4.37;3.13;;;;;;;-141.29;100.00;58932.97;5074941;28;20445;-76
2021/12/30 02:47:43;;;;;;;3.97;2.70;;;;;;;-141.29;100.00;58932.97;5074984;28;20451;-74
2021/12/30 02:50:13;;;;;;;4.23;2.87;;;;;;;-141.29;100.00;58932.97;5074737;28;20430;-77
2021/12/30 02:52:45;;;;;;;5.10;3.13;;;;;;;-141.29;100.00;58932.97;5075490;28;20462;-74
2021/12/30 02:55:14;;;;;;;4.57;3.00;;;;;;;-141.29;100.00;58932.97;5074691;28;21043;-76
2021/12/30 02:57:41;;;;;;;6.67;3.40;;;;;;;-141.29;100.00;58932.97;5073742;28;20443;-76
2021/12/30 03:00:10;;;;;;;2.87;2.57;;;;;;;-141.29;100.00;58932.97;5074354;28;20496;-77
2021/12/30 03:02:41;;;;;;;4.13;2.67;;;;;;;-141.29;100.00;58932.97;5074670;28;20526;-73
2021/12/30 03:05:15;;;;;;;3.43;2.80;;;;;;;-141.29;100.00;58932.97;5075224;28;20504;-73
2021/12/30 03:07:55;;;;;;;4.80;3.27;;;;;;;-141.29;100.00;58932.97;5074504;28;20447;-75
2021/12/30 03:10:25;;;;;;;3.90;2.77;;;;;;;-141.29;100.00;58932.97;5073696;28;20953;-75
2021/12/30 03:12:57;;;;;;;2.87;2.40;;;;;;;-141.29;100.00;58932.97;5074491;28;20431;-76
2021/12/30 03:15:28;;;;;;;3.83;2.50;;;;;;;-141.29;100.00;58932.97;5074472;28;20516;-76
2021/12/30 03:17:55;;;;;;;3.33;2.53;;;;;;;-141.29;100.00;58932.97;5074465;28;20925;-74
2021/12/30 03:20:25;;;;;;;4.30;2.80;;;;;;;-141.29;100.00;58932.97;5074399;28;20451;-76
2021/12/30 03:22:55;;;;;;;3.47;2.40;;;;;;;-141.29;100.00;58932.97;5074354;28;20513;-75
2021/12/30 03:25:23;;;;;;;4.00;2.60;;;;;;;-141.29;100.00;58932.97;5074143;28;20450;-74
2021/12/30 03:27:51;;;;;;;2.73;2.30;;;;;;;-141.29;100.00;58932.97;5074064;28;20525;-73
2021/12/30 03:30:20;;;;;;;2.73;2.33;;;;;;;-141.29;100.00;58932.97;5074271;28;20423;-74
2021/12/30 03:32:50;;;;;;;3.20;2.20;;;;;;;-141.29;100.00;58932.97;5074045;28;20431;-76
2021/12/30 03:35:19;;;;;;;3.60;2.20;;;;;;;-141.29;100.00;58932.97;5072838;28;20493;-75
2021/12/30 03:37:46;;;;;;;3.63;2.40;;;;;;;-141.29;100.00;58932.97;5073926;28;20435;-73
2021/12/30 03:40:17;;;;;;;2.50;2.00;;;;;;;-141.29;100.00;58932.97;5073612;28;20846;-75
2021/12/30 03:42:45;;;;;;;3.17;2.20;;;;;;;-141.29;100.00;58932.97;5073758;28;20455;-75
2021/12/30 03:45:16;;;;;;;3.60;2.17;;;;;;;-141.29;100.00;58932.97;5073724;28;20446;-75
2021/12/30 03:47:49;;;;;;;3.80;2.30;;;;;;;-141.29;100.00;58932.97;5073950;28;20434;-74
2021/12/30 03:50:21;;;;;;;2.63;2.10;;;;;;;-141.29;100.00;58932.97;5073721;28;20454;-75
2021/12/30 03:52:51;;;;;;;2.40;2.13;;;;;;;-141.29;100.00;58932.97;5073356;28;20991;-75
2021/12/30 03:55:29;;;;;;;2.27;2.03;;;;;;;-141.29;100.00;58932.97;5073400;28;20482;-73
2021/12/30 03:57:57;;;;;;;2.67;2.20;;;;;;;-141.29;100.00;58932.97;5073564;28;20499;-75
2021/12/30 04:00:27;;;;;;;4.67;2.47;;;;;;;-141.29;100.00;58932.97;5073983;28;20443;-74
2021/12/30 04:02:55;;;;;;;4.53;2.50;;;;;;;-141.29;100.00;58932.97;5072793;28;20446;-75
2021/12/30 04:05:23;;;;;;;3.27;2.43;;;;;;;-141.29;100.00;58932.97;5073240;28;20442;-75
2021/12/30 04:07:55;;;;;;;3.17;2.43;;;;;;;-141.29;100.00;58932.97;5072421;28;20447;-74
2021/12/30 04:10:24;;;;;;;4.07;2.60;;;;;;;-141.29;100.00;58932.97;5073237;28;20520;-75
2021/12/30 04:12:53;;;;;;;4.43;2.90;;;;;;;-141.29;100.00;58932.97;5072964;28;20876;-75
2021/12/30 04:15:21;;;;;;;3.13;2.60;;;;;;;-141.29;100.00;58932.97;5073191;28;20543;-74
2021/12/30 04:17:52;;;;;;;3.80;2.90;;;;;;;-141.29;100.00;58932.97;5073189;28;20449;-75
2021/12/30 04:20:21;;;;;;;4.10;2.83;;;;;;;-141.29;100.00;58932.97;5071819;28;20453;-73
2021/12/30 04:22:51;;;;;;;3.30;2.60;;;;;;;-141.29;100.00;58932.97;5072920;28;20508;-76
2021/12/30 04:25:20;;;;;;;6.60;3.90;;;;;;;-141.29;100.00;58932.97;5073247;28;20438;-77
2021/12/30 04:27:51;;;;;;;10.90;4.63;;;;;;;-141.29;100.00;58932.97;5077425;28;20450;-75
2021/12/30 04:30:20;;;;;;;8.20;3.37;;;;;;;-141.29;100.00;58932.97;5073730;28;20446;-75
2021/12/30 04:32:47;;;;;;;3.77;3.07;;;;;;;-141.29;100.00;58932.97;5072471;28;20454;-76
2021/12/30 04:35:16;;;;;;;2.57;1.83;;;;;;;-141.29;100.00;58932.97;5072289;28;20490;-75
2021/12/30 04:37:47;;;;;;;2.63;1.90;;;;;;;-141.29;100.00;58932.97;5072308;28;20446;-75
2021/12/30 04:40:15;;;;;;;2.50;1.93;;;;;;;-141.29;100.00;58932.97;5072495;28;20470;-74
2021/12/30 04:42:44;;;;;;;2.33;2.00;;;;;;;-141.29;100.00;58932.97;5072231;28;20908;-76
2021/12/30 04:45:16;;;;;;;2.57;2.17;;;;;;;-141.29;100.00;58932.97;5073004;28;20462;-74
2021/12/30 04:47:45;;;;;;;3.67;2.67;;;;;;;-141.29;100.00;58932.97;5072267;28;20458;-75
2021/12/30 04:50:14;;;;;;;4.27;2.33;;;;;;;-141.29;100.00;58932.97;5073598;28;20431;-73
2021/12/30 04:52:44;;;;;;;2.20;1.70;;;;;;;-141.29;100.00;58932.97;5072177;28;20439;-75
2021/12/30 04:55:12;;;;;;;2.43;1.80;;;;;;;-141.29;100.00;58932.97;5072420;28;20539;-75
2021/12/30 04:57:39;;;;;;;2.13;1.40;;;;;;;-141.29;100.00;58932.97;5072305;28;20496;-75
2021/12/30 05:00:09;;;;;;;2.53;1.70;;;;;;;-141.29;100.00;58932.97;5071213;28;20438;-74
2021/12/30 05:03:08;;;;;;;3.63;2.30;;;;;;;-141.29;100.00;58932.97;5072347;28;20450;-75
2021/12/30 05:05:39;;;;;;;4.77;2.23;;;;;;;-141.29;100.00;58932.97;5072116;28;20434;-75
2021/12/30 05:08:07;;;;;;;2.30;2.00;;;;;;;-141.29;100.00;58932.97;5071936;28;20534;-75
2021/12/30 05:10:39;;;;;;;3.13;1.80;;;;;;;-141.29;100.00;58932.97;5072093;28;20435;-74
2021/12/30 05:13:09;;;;;;;2.37;2.00;;;;;;;-141.29;100.00;58932.97;5072179;28;20427;-76
2021/12/30 05:15:37;;;;;;;2.70;2.10;;;;;;;-141.29;100.00;58932.97;5070685;28;20493;-73
2021/12/30 05:18:11;;;;;;;3.40;2.17;;;;;;;-141.29;100.00;58932.97;5071974;28;20438;-74
2021/12/30 05:20:41;;;;;;;2.00;1.80;;;;;;;-141.29;100.00;58932.97;5070431;28;20543;-73
2021/12/30 05:23:16;;;;;;;2.10;1.70;;;;;;;-141.29;100.00;58932.97;5071853;28;20976;-75
2021/12/30 05:25:45;;;;;;;2.07;1.67;;;;;;;-141.29;100.00;58932.97;5070984;28;20450;-75
2021/12/30 05:28:12;;;;;;;2.37;1.70;;;;;;;-141.29;100.00;58932.97;5072586;28;20816;-75
2021/12/30 05:30:39;;;;;;;3.40;2.23;;;;;;;-141.29;100.00;58932.97;5072005;28;20454;-77
2021/12/30 05:33:08;;;;;;;4.03;2.27;;;;;;;-141.29;100.00;58932.97;5072043;28;20441;-75
2021/12/30 05:35:38;;;;;;;4.53;3.07;;;;;;;-141.29;100.00;58932.97;5071770;28;20992;-75
2021/12/30 05:38:05;;;;;;;7.00;3.70;;;;;;;-141.29;100.00;58932.97;5072256;28;20504;-75
2021/12/30 05:40:33;;;;;;;7.83;3.97;;;;;;;-141.29;100.00;58932.97;5072749;28;20462;-74
2021/12/30 05:43:01;;;;;;;4.23;2.87;;;;;;;-141.29;100.00;58932.97;5071450;28;20475;-74
2021/12/30 05:45:28;;;;;;;6.53;3.73;;;;;;;-141.29;100.00;58932.97;5070403;28;20431;-75
2021/12/30 05:47:56;;;;;;;13.60;6.87;;;;;;;-141.29;100.00;58932.97;5071876;28;20435;-73
2021/12/30 05:50:31;;;;;;;12.90;6.27;;;;;;;-141.29;100.00;58932.97;5071420;28;20945;-75
2021/12/30 05:53:04;;;;;;;6.53;3.70;;;;;;;-141.29;100.00;58932.97;5072400;28;20861;-75
2021/12/30 05:55:34;;;;;;;6.43;3.10;;;;;;;-141.29;100.00;58932.97;5071912;28;20478;-74
2021/12/30 05:58:07;;;;;;;6.17;3.40;;;;;;;-141.29;100.00;58932.97;5071672;28;20445;-75
2021/12/30 06:00:35;;;;;;;4.83;3.00;;;;;;;-141.29;100.00;58932.97;5071580;28;20427;-76
2021/12/30 06:03:07;;;;;;;5.70;2.80;;;;;;;-141.29;100.00;58932.97;5072222;28;20454;-77
2021/12/30 06:05:35;;;;;;;5.80;3.10;;;;;;;-141.29;100.00;58932.97;5072000;28;20442;-75
2021/12/30 06:08:04;;;;;;;5.50;3.27;;;;;;;-141.29;100.00;58932.97;5071461;28;20787;-75
2021/12/30 06:10:31;;;;;;;5.70;3.10;;;;;;;-141.29;100.00;58932.97;5071474;28;20447;-75
2021/12/30 06:12:59;;;;;;;5.93;3.50;;;;;;;-141.29;100.00;58932.97;5071121;28;20446;-76
2021/12/30 06:15:26;;;;;;;6.80;3.50;;;;;;;-141.29;100.00;58932.97;5071256;28;20539;-75
2021/12/30 06:17:53;;;;;;;4.80;3.70;;;;;;;-141.29;100.00;58932.97;5071138;28;20438;-77
2021/12/30 06:20:22;;;;;;;5.37;3.53;;;;;;;-141.29;100.00;58932.97;5071795;28;20580;-74
2021/12/30 06:22:52;;;;;;;5.93;3.77;;;;;;;-141.29;100.00;58932.97;5071910;28;20450;-76
2021/12/30 06:25:22;;;;;;;4.97;3.50;;;;;;;-141.29;100.00;58932.97;5072144;28;20500;-75
2021/12/30 06:27:49;;;;;;;6.23;3.33;;;;;;;-141.29;100.00;58932.97;5071669;28;20427;-75
2021/12/30 06:30:16;;;;;;;5.70;3.07;;;;;;;-141.29;100.00;58932.97;5071431;28;21036;-77
2021/12/30 06:32:45;;;;;;;4.93;2.90;;;;;;;-141.29;100.00;58932.97;5073835;28;20973;-77
2021/12/30 06:35:14;;;;;;;6.67;3.10;;;;;;;-141.29;100.00;58932.97;5073720;28;21001;-77
2021/12/30 06:37:42;;;;;;;6.43;4.10;;;;;;;-141.29;100.00;58932.97;5081160;28;20446;-74
2021/12/30 06:40:16;;;;;;;8.57;4.20;;;;;;;-141.29;100.00;58932.97;5075228;28;20467;-75
2021/12/30 06:42:43;;;;;;;8.57;4.13;;;;;;;-141.29;100.00;58932.97;5075024;28;20449;-75
2021/12/30 06:45:11;;;;;;;9.57;5.00;;;;;;;-141.29;100.00;58932.97;5074314;28;20973;-75
2021/12/30 06:47:39;;;;;;;11.30;5.63;;;;;;;-141.29;100.00;58932.97;5074842;28;20445;-77
2021/12/30 06:50:07;;;;;;;14.40;6.10;;;;;;;-141.29;100.00;58932.97;5074432;28;20484;-76
2021/12/30 06:52:36;;;;;;;12.10;5.47;;;;;;;-141.29;100.00;58932.97;5074825;28;20446;-75
2021/12/30 06:55:03;;;;;;;9.33;4.30;;;;;;;-141.29;100.00;58932.97;5074484;28;20957;-75
2021/12/30 06:57:32;;;;;;;13.17;4.20;;;;;;;-141.29;100.00;58932.97;5074476;28;20454;-76
2021/12/30 06:59:59;;;;;;;18.40;4.40;;;;;;;-141.29;100.00;58932.97;5074729;28;20515;-76
2021/12/30 07:02:26;;;;;;;12.60;4.00;;;;;;;-141.29;100.00;58932.97;5074580;28;20504;-75
2021/12/30 07:04:54;;;;;;;12.83;4.50;;;;;;;-141.29;100.00;58932.97;5074990;28;20439;-76
2021/12/30 07:07:21;;;;;;;5.70;3.40;;;;;;;-141.29;100.00;58932.97;5074254;28;20875;-75
2021/12/30 07:09:48;;;;;;;5.90;3.50;;;;;;;-141.29;100.00;58932.97;5074414;28;20438;-75
2021/12/30 07:12:16;;;;;;;4.07;2.60;;;;;;;-141.29;100.00;58932.97;5074163;28;20504;-75
2021/12/30 07:14:45;;;;;;;5.00;2.40;;;;;;;-141.29;100.00;58932.97;5073856;28;20512;-75
2021/12/30 07:17:16;;;;;;;5.70;2.63;;;;;;;-141.29;100.00;58932.97;5072945;28;20486;-74
2021/12/30 07:19:44;;;;;;;14.27;2.90;;;;;;;-141.29;100.00;58932.97;5073012;28;20453;-73
2021/12/30 07:22:11;;;;;;;5.40;2.70;;;;;;;-141.29;100.00;58932.97;5074239;28;20477;-76
2021/12/30 07:24:39;;;;;;;3.80;2.30;;;;;;;-141.29;100.00;58932.97;5074255;28;20532;-75
2021/12/30 07:27:06;;;;;;;5.97;2.80;;;;;;;-141.29;100.00;58932.97;5073848;28;20446;-75
2021/12/30 07:29:34;;;;;;;9.40;2.97;;;;;;;-141.29;100.00;58932.97;5074085;28;20867;-75
2021/12/30 07:32:03;;;;;;;8.37;2.27;;;;;;;-141.29;100.00;58932.97;5056317;28;20447;-75
2021/12/30 07:34:31;;;;;;;4.37;2.53;;;;;;;-141.29;100.00;58932.97;5073824;28;20875;-75
2021/12/30 07:36:58;;;;;;;13.93;3.67;;;;;;;-141.29;100.00;58932.97;5074099;28;20575;-73
2021/12/30 07:39:25;;;;;;;5.77;2.53;;;;;;;-141.29;100.00;58932.97;5073791;28;20557;-74
2021/12/30 07:41:56;;;;;;;7.80;2.17;;;;;;;-141.29;100.00;58932.97;5073118;28;21034;-75
2021/12/30 07:44:23;;;;;;;2.40;1.70;;;;;;;-141.29;100.00;58932.97;5073742;28;20949;-74
2021/12/30 07:46:52;;;;;;;3.60;1.80;;;;;;;-141.29;100.00;58932.97;5073690;28;20434;-76
2021/12/30 07:49:21;;;;;;;4.27;1.90;;;;;;;-141.29;100.00;58932.97;5073567;28;20438;-76
2021/12/30 07:51:52;;;;;;;9.30;2.27;;;;;;;-141.29;100.00;58932.97;5073445;28;20438;-76
2021/12/30 07:54:21;;;;;;;3.57;1.43;;;;;;;-141.29;100.00;58932.97;5072012;28;20473;-77
2021/12/30 07:56:48;;;;;;;4.37;1.97;;;;;;;-141.29;100.00;58932.97;5073121;28;20552;-75
2021/12/30 07:59:20;;;;;;;5.23;2.40;;;;;;;-141.29;100.00;58932.97;5073231;28;20496;-75
2021/12/30 08:01:48;;;;;;;4.63;3.07;;;;;;;-141.29;100.00;58932.97;5071992;28;20975;-77
2021/12/30 08:04:17;;;;;;;4.17;2.63;;;;;;;-141.29;100.00;58932.97;5073341;28;20500;-75
2021/12/30 08:06:52;;;;;;;4.60;2.30;;;;;;;-141.29;100.00;58932.97;5073331;28;20446;-75
2021/12/30 08:09:18;;;;;;;3.73;2.20;;;;;;;-141.29;100.00;58932.97;5073385;28;20445;-75
2021/12/30 08:11:48;;;;;;;4.50;2.67;;;;;;;-141.29;100.00;58932.97;5072921;28;20442;-75
2021/12/30 08:14:15;;;;;;;4.60;2.77;;;;;;;-141.29;100.00;58932.97;5073068;28;20493;-74
2021/12/30 08:16:42;;;;;;;5.50;3.20;;;;;;;-141.29;100.00;58932.97;5073564;28;20478;-75
2021/12/30 08:19:10;;;;;;;6.33;4.10;;;;;;;-141.29;100.00;58932.97;5072776;28;20442;-76
2021/12/30 08:21:41;;;;;;;5.33;3.57;;;;;;;-141.29;100.00;58932.97;5072787;28;20934;-76
2021/12/30 08:24:12;;;;;;;9.50;4.10;;;;;;;-141.29;100.00;58932.97;5073288;28;20438;-73
2021/12/30 08:26:40;;;;;;;7.70;3.77;;;;;;;-141.29;100.00;58932.97;5073120;28;20464;-78
2021/12/30 08:29:09;;;;;;;4.73;2.43;;;;;;;-141.29;100.00;58932.97;5072498;28;20478;-77
2021/12/30 08:31:42;;;;;;;2.97;1.50;;;;;;;-141.29;100.00;58932.97;5072807;28;20442;-75
2021/12/30 08:34:11;;;;;;;2.63;1.60;;;;;;;-141.29;100.00;58932.97;5073067;28;20435;-75
2021/12/30 08:36:38;;;;;;;3.70;1.50;;;;;;;-141.29;100.00;58932.97;5072485;28;20474;-75
2021/12/30 08:39:06;;;;;;;4.13;2.10;;;;;;;-141.29;100.00;58932.97;5072307;28;20474;-75
2021/12/30 08:41:35;;;;;;;2.60;1.70;;;;;;;-141.29;100.00;58932.97;5072407;28;20494;-76
2021/12/30 08:44:04;;;;;;;5.00;2.83;;;;;;;-141.29;100.00;58932.97;5072816;28;20534;-74
2021/12/30 08:46:39;;;;;;;2.13;1.80;;;;;;;-141.29;100.00;58932.97;5073107;28;20473;-75
2021/12/30 08:49:09;;;;;;;2.03;1.70;;;;;;;-141.29;100.00;58932.97;5074441;28;20443;-75
2021/12/30 08:51:37;;;;;;;4.47;1.90;;;;;;;-141.29;100.00;58932.97;5072528;28;20435;-73
2021/12/30 08:54:05;;;;;;;2.00;1.80;;;;;;;-141.29;100.00;58932.97;5071570;28;20439;-76
2021/12/30 08:56:46;;;;;;;3.10;2.20;;;;;;;-141.29;100.00;58932.97;5072238;28;21055;-75
2021/12/30 08:59:17;;;;;;;5.33;2.10;;;;;;;-141.29;100.00;58932.97;5070104;28;20438;-76
2021/12/30 09:01:47;;;;;;;4.23;2.97;;;;;;;-141.29;100.00;58932.97;5072431;28;20435;-75
2021/12/30 09:04:15;;;;;;;4.57;2.70;;;;;;;-141.29;100.00;58932.97;5072184;28;20442;-76
2021/12/30 09:06:50;;;;;;;4.27;2.20;;;;;;;-141.29;100.00;58932.97;5072024;28;20454;-76
2021/12/30 09:09:17;;;;;;;4.97;2.83;;;;;;;-141.29;100.00;58932.97;5072275;28;20443;-76
2021/12/30 09:11:58;;;;;;;3.13;2.10;;;;;;;-141.29;100.00;58932.97;5072262;28;20430;-76
2021/12/30 09:14:32;;;;;;;2.77;2.10;;;;;;;-141.29;100.00;58932.97;5070719;28;20447;-75
2021/12/30 09:17:01;;;;;;;5.53;2.17;;;;;;;-141.29;100.00;58932.97;5071867;28;21034;-74
2021/12/30 09:19:31;;;;;;;4.83;3.00;;;;;;;-141.29;100.00;58932.97;5071962;28;20489;-74
2021/12/30 09:21:58;;;;;;;3.80;2.50;;;;;;;-141.29;100.00;58932.97;5071810;28;20427;-77
2021/12/30 09:24:27;;;;;;;4.20;2.10;;;;;;;-141.29;100.00;58932.97;5073235;28;20478;-77
2021/12/30 09:26:56;;;;;;;4.07;1.67;;;;;;;-141.29;100.00;58932.97;5071797;28;20450;-76
2021/12/30 09:29:23;;;;;;;4.10;1.40;;;;;;;-141.29;100.00;58932.97;5071126;28;20442;-75
2021/12/30 09:31:54;;;;;;;3.57;1.67;;;;;;;-141.29;100.00;58932.97;5071634;28;20500;-76
2021/12/30 09:34:21;;;;;;;2.97;1.80;;;;;;;-141.29;100.00;58932.97;5071586;28;20451;-76
2021/12/30 09:36:49;;;;;;;2.30;1.83;;;;;;;-141.29;100.00;58932.97;5070376;28;20500;-75
2021/12/30 09:39:17;;;;;;;2.20;2.00;;;;;;;-141.29;100.00;58932.97;5071630;28;20896;-74
2021/12/30 09:41:47;;;;;;;3.97;2.37;;;;;;;-141.29;100.00;58932.97;5071420;28;20462;-73
2021/12/30 09:44:21;;;;;;;4.70;3.40;;;;;;;-141.29;100.00;58932.97;5071992;28;20496;-74
2021/12/30 09:46:49;;;;;;;5.67;2.47;;;;;;;-141.29;100.00;58932.97;5071433;28;20461;-74
2021/12/30 09:49:23;;;;;;;2.57;1.33;;;;;;;-141.29;100.00;58932.97;5071853;28;21018;-77
2021/12/30 09:51:50;;;;;;;2.30;1.60;;;;;;;-141.29;100.00;58932.97;5071352;28;20465;-76
2021/12/30 09:54:23;;;;;;;2.57;1.70;;;;;;;-141.29;100.00;58932.97;5071664;28;20430;-76
2021/12/30 09:56:51;;;;;;;2.07;1.40;;;;;;;-141.29;100.00;58932.97;5071735;28;20593;-75
2021/12/30 09:59:21;;;;;;;1.40;1.20;;;;;;;-141.29;100.00;58932.97;5071359;28;20438;-76
2021/12/30 10:01:50;;;;;;;2.03;1.40;;;;;;;-141.29;100.00;58932.97;5071535;28;20431;-75
2021/12/30 10:04:17;;;;;;;2.37;1.40;;;;;;;-141.29;100.00;58932.97;5071541;28;20439;-75
2021/12/30 10:06:47;;;;;;;6.00;2.13;;;;;;;-141.29;100.00;58932.97;5074363;28;20450;-73
2021/12/30 10:09:29;;;;;;;1.80;1.20;;;;;;;-141.29;100.00;58932.97;5075905;28;20925;-76
2021/12/30 10:11:59;;;;;;;1.97;1.43;;;;;;;-141.29;100.00;58932.97;5075601;28;20445;-75
2021/12/30 10:14:40;;;;;;;1.97;1.60;;;;;;;-141.29;100.00;58932.97;5075200;28;20825;-74
2021/12/30 10:17:21;;;;;;;1.17;1.07;;;;;;;-141.29;100.00;58932.97;5075217;28;20481;-75
2021/12/30 10:19:50;;;;;;;2.73;1.30;;;;;;;-141.29;100.00;58932.97;5075279;28;20872;-75
2021/12/30 10:22:21;;;;;;;2.40;1.60;;;;;;;-141.29;100.00;58932.97;5074810;28;20454;-74
2021/12/30 10:24:49;;;;;;;2.10;1.80;;;;;;;-141.29;100.00;58932.97;5075591;28;20450;-76
2021/12/30 10:27:27;;;;;;;3.60;1.87;;;;;;;-141.29;100.00;58932.97;5075064;28;20459;-76
2021/12/30 10:29:59;;;;;;;2.70;2.30;;;;;;;-141.29;100.00;58932.97;5074975;28;20450;-74
2021/12/30 10:32:29;;;;;;;3.13;2.17;;;;;;;-141.29;100.00;58932.97;5074800;28;20940;-76
2021/12/30 10:35:06;;;;;;;2.70;1.30;;;;;;;-141.29;100.00;58932.97;5074980;28;20452;-77
2021/12/30 10:37:35;;;;;;;1.90;1.57;;;;;;;-141.29;100.00;58932.97;5073115;28;21000;-74
2021/12/30 10:40:03;;;;;;;5.60;1.90;;;;;;;-141.29;100.00;58932.97;5074187;28;20466;-76
2021/12/30 10:42:33;;;;;;;3.03;2.20;;;;;;;-141.29;100.00;58932.97;5074203;28;20466;-77
2021/12/30 10:45:06;;;;;;;15.57;5.63;;;;;;;-141.29;100.00;58932.97;5074785;28;20450;-76
2021/12/30 10:47:50;;;;;;;5.77;2.40;;;;;;;-141.29;100.00;58932.97;5073389;28;20979;-75
2021/12/30 10:50:22;;;;;;;1.90;1.37;;;;;;;-141.29;100.00;58932.97;5074424;28;20449;-76
2021/12/30 10:52:52;;;;;;;1.57;1.10;;;;;;;-141.29;100.00;58932.97;5074345;28;20450;-76
2021/12/30 10:55:21;;;;;;;2.07;1.30;;;;;;;-141.29;100.00;58932.97;5074671;28;20447;-76
2021/12/30 10:57:48;;;;;;;2.00;1.30;;;;;;;-141.29;100.00;58932.97;5079271;28;20482;-77
2021/12/30 11:00:28;;;;;;;1.83;1.50;;;;;;;-141.29;100.00;58932.97;5074570;28;20438;-75
2021/12/30 11:02:55;;;;;;;2.07;1.57;;;;;;;-141.29;100.00;58932.97;5074427;28;20548;-74
2021/12/30 11:05:23;;;;;;;1.70;1.40;;;;;;;-141.29;100.00;58932.97;5074592;28;20816;-75
2021/12/30 11:07:55;;;;;;;2.20;1.67;;;;;;;-141.29;100.00;58932.97;5074201;28;20434;-78
2021/12/30 11:10:32;;;;;;;2.10;1.53;;;;;;;-141.29;100.00;58932.97;5073210;28;20438;-75
2021/12/30 11:13:11;;;;;;;2.43;1.73;;;;;;;-141.29;100.00;58932.97;5074045;28;20513;-76
2021/12/30 11:15:43;;;;;;;6.50;3.40;;;;;;;-141.29;100.00;58932.97;5074682;28;20462;-75
2021/12/30 11:18:15;;;;;;;4.83;2.83;;;;;;;-141.29;100.00;58932.97;5073540;28;20486;-76
2021/12/30 11:20:48;;;;;;;3.40;2.20;;;;;;;-141.29;100.00;58932.97;5074342;28;20518;-75
2021/12/30 11:23:21;;;;;;;8.00;3.97;;;;;;;-141.29;100.00;58932.97;5074150;28;20438;-77
2021/12/30 11:25:49;;;;;;;6.97;3.70;;;;;;;-141.29;100.00;58932.97;5074317;28;20545;-76